Surprise, AZ

12:53 AM MST on August 23, 2014 (GMT -0700)
Kingswood Parke | Change Station
CLOSE
Current Station
Personal Weather Station
Location: Surprise, AZ
Elevation: 1227 ft
Nearby Weather Stations

Elev 1227 ft 33.64 °N, 112.37 °W | Updated 8 seconds ago

Clear
Clear
77.4 °F
Feels Like 79 °F
N
1.2
Wind Variable Wind from South
Gusts 0.0 mph

Today
High -- | Low -- °F
--% Chance of Precip.
Yesterday
High -- | Low -- °F
Precip. -- in
5:57 AM 7:06 PM
Waning Crescent, 5% visible
Pressure 29.85 in
Visibility 10.0 miles
Clouds Clear
Heat Index 79 °F
Dew Point 66 °F
Humidity 69%
Rainfall 0.00 in
Snow Depth Not available.
UV 0 out of 12
Pollen 4.30 out of 12
PM2.5 Good
Flu Activity Not available.
METAR KLUF 230658Z AUTO 22002KT 10SM CLR 27/20 A2988 RMK AO2 SLP106 T02740198 403320211 VISNO RWY03 CHINO RWY03 $

More Conditions Fewer Conditions

Pressure 29.85 in
Visibility 10.0 miles
Clouds Clear
Heat Index 79 °F
Dew Point 66 °F
Humidity 69%
Rainfall 0.00 in
Snow Depth Not available.
UV 0 out of 12
Pollen 4.30 out of 12
PM2.5 Good
Flu Activity Not available.
METAR KLUF 230658Z AUTO 22002KT 10SM CLR 27/20 A2988 RMK AO2 SLP106 T02740198 403320211 VISNO RWY03 CHINO RWY03 $

More Conditions Fewer Conditions

10-Day Weather Forecast

Almanac

Astronomy

Aug. 23, 2014 Rise Set
Actual Time 5:57 AM MST 7:06 PM MST
Civil Twilight 5:31 AM MST 7:32 PM MST
Nautical Twilight 5:00 AM MST 8:02 PM MST
Astronomical Twilight 4:28 AM MST 8:34 PM MST
Moon 4:18 AM MST 5:52 PM MST
Length of Visible Light 14h 00m
Length of Day
13h 09m
Tomorrow will be 1m 55s shorter.
Waning Crescent, 5% of the Moon is Illuminated
Today
Waning Crescent
Aug 25
New
Sep 2
First Quarter
Sep 8
Full
Sep 15
Last Quarter

Today's Extremes

State Highs State Lows

Community

WunderPhotos

Upload Photos

1,746,384 photos uploaded!

WunderBlogs® & News

By Dr. Jeff Masters
Director of Meteorology, Weather Underground
By Kari Strenfel
Meteorologist, Weather Underground
By Christopher C. Burt
Weather Historian, Weather Underground
August 23, 2014
August 23, 2014
August 22, 2014

Nearby

Air Quality

  Air Quality AQ Index Pollutant
Yesterday Good
OZONE
Yesterday Good
PM10
Current Good
PM2.5
Saturday Moderate
OZONE
Saturday Good
PM10
Saturday Good
CO
Sunday Moderate
OZONE
Sunday Good
PM10
Sunday Good
CO

Snow Depth

Station Depth Elevation
Workman Creek 2 in 6900 ft
Promontory 0 in 7930 ft
Mormon Mountain 0 in 7500 ft
White Horse Lake 1 in 7180 ft
Heber 0 in 7640 ft

Earthquake Activity

City Distance Mag. Time & Date
No recent earthquake activity has been reported nearby.
Minimum magnitude displayed is 2.5.

Coastal Water Temperatures

Place Temperature
No Stations Reporting

Nearby Weather Stations